createdAt,value
2023-05-21T00:01:36.244Z,14.73
2023-05-21T00:04:03.556Z,14.53
2023-05-21T00:06:30.534Z,13.70
2023-05-21T00:08:58.865Z,13.73
2023-05-21T00:11:26.093Z,14.77
2023-05-21T00:13:52.728Z,12.87
2023-05-21T00:16:19.476Z,15.57
2023-05-21T00:18:46.155Z,16.17
2023-05-21T00:21:14.085Z,17.00
2023-05-21T00:23:42.849Z,18.13
2023-05-21T00:26:09.495Z,19.77
2023-05-21T00:28:36.081Z,17.40
2023-05-21T00:31:02.787Z,18.57
2023-05-21T00:33:30.936Z,18.57
2023-05-21T00:35:58.450Z,20.07
2023-05-21T00:38:28.779Z,17.70
2023-05-21T00:40:55.772Z,17.73
2023-05-21T00:43:26.711Z,19.17
2023-05-21T00:45:54.718Z,19.93
2023-05-21T00:48:21.334Z,18.03
2023-05-21T00:50:49.534Z,16.90
2023-05-21T00:53:18.629Z,19.67
2023-05-21T00:55:46.450Z,20.53
2023-05-21T00:58:13.029Z,14.90
2023-05-21T01:00:40.813Z,15.07
2023-05-21T01:03:07.801Z,17.07
2023-05-21T01:05:35.075Z,15.80
2023-05-21T01:08:01.855Z,13.33
2023-05-21T01:10:28.743Z,13.50
2023-05-21T01:12:55.459Z,11.97
2023-05-21T01:15:22.110Z,10.83
2023-05-21T01:17:48.966Z,10.30
2023-05-21T01:20:19.663Z,9.17
2023-05-21T01:22:54.767Z,12.13
2023-05-21T01:25:24.503Z,6.83
2023-05-21T01:27:51.382Z,10.10
2023-05-21T01:30:18.422Z,7.50
2023-05-21T01:32:50.004Z,11.00
2023-05-21T01:35:38.231Z,10.90
2023-05-21T01:38:09.270Z,14.23
2023-05-21T01:40:39.174Z,9.23
2023-05-21T02:15:53.336Z,12.50
2023-05-21T02:18:21.470Z,7.23
2023-05-21T02:20:48.207Z,7.80
2023-05-21T02:23:14.887Z,7.63
2023-05-21T02:25:41.543Z,7.57
2023-05-21T02:28:08.979Z,9.57
2023-05-21T02:30:36.943Z,10.83
2023-05-21T02:33:04.394Z,8.53
2023-05-21T02:35:32.371Z,9.20
2023-05-21T02:38:00.143Z,10.13
2023-05-21T02:40:26.854Z,9.97
2023-05-21T02:42:53.507Z,8.63
2023-05-21T02:45:21.435Z,7.80
2023-05-21T02:47:48.227Z,8.97
2023-05-21T02:50:18.179Z,9.57
2023-05-21T02:52:52.394Z,10.97
2023-05-21T02:55:19.767Z,11.13
2023-05-21T02:57:46.382Z,12.17
2023-05-21T03:00:13.726Z,11.57
2023-05-21T03:02:42.402Z,9.53
2023-05-21T03:05:10.337Z,10.07
2023-05-21T03:07:39.050Z,9.63
2023-05-21T03:10:06.044Z,11.17
2023-05-21T03:12:32.729Z,8.53
2023-05-21T03:15:00.132Z,10.97
2023-05-21T03:17:27.956Z,10.13
2023-05-21T03:19:54.857Z,8.63
2023-05-21T03:22:21.683Z,10.43
2023-05-21T03:24:49.162Z,10.30
2023-05-21T03:27:17.848Z,10.27
2023-05-21T03:29:46.619Z,10.27
2023-05-21T03:32:13.575Z,9.17
2023-05-21T03:34:40.834Z,12.43
2023-05-21T03:37:07.479Z,10.40
2023-05-21T03:39:34.341Z,11.43
2023-05-21T03:42:01.074Z,9.40
2023-05-21T03:44:47.643Z,11.70
2023-05-21T03:47:32.830Z,12.53
2023-05-21T03:50:02.493Z,11.97
2023-05-21T03:52:29.173Z,11.63
2023-05-21T03:54:56.547Z,13.60
2023-05-21T03:57:23.459Z,13.27
2023-05-21T03:59:50.242Z,12.53
2023-05-21T04:02:16.995Z,11.60
2023-05-21T04:04:44.564Z,13.07
2023-05-21T04:07:14.675Z,12.90
2023-05-21T04:09:42.084Z,14.57
2023-05-21T04:12:08.704Z,14.37
2023-05-21T04:14:37.718Z,11.57
2023-05-21T04:17:07.540Z,10.27
2023-05-21T04:19:34.361Z,12.30
2023-05-21T04:22:03.258Z,7.97
2023-05-21T04:24:31.273Z,9.97
2023-05-21T04:27:11.400Z,10.30
2023-05-21T04:29:42.634Z,12.70
2023-05-21T04:32:09.507Z,12.93
2023-05-21T04:34:36.150Z,9.70
2023-05-21T04:37:02.864Z,12.50
2023-05-21T04:39:31.605Z,12.03
2023-05-21T04:41:58.308Z,12.33
2023-05-21T04:44:25.724Z,14.00
2023-05-21T04:46:52.836Z,11.30
2023-05-21T04:49:24.151Z,11.07
2023-05-21T04:51:50.895Z,11.40
2023-05-21T04:54:17.546Z,11.73
2023-05-21T04:56:44.536Z,11.73
2023-05-21T04:59:11.434Z,9.67
2023-05-21T05:01:38.733Z,9.03
2023-05-21T05:04:05.886Z,9.73
2023-05-21T05:06:32.774Z,12.40
2023-05-21T05:08:59.447Z,11.53
2023-05-21T05:11:26.736Z,13.07
2023-05-21T05:13:53.328Z,10.20
2023-05-21T05:16:25.349Z,9.67
2023-05-21T05:18:53.929Z,9.07
2023-05-21T05:21:22.044Z,9.77
2023-05-21T05:23:48.736Z,10.47
2023-05-21T05:26:15.982Z,11.03
2023-05-21T05:28:43.287Z,11.77
2023-05-21T05:31:10.214Z,10.33
2023-05-21T05:33:36.990Z,10.83
2023-05-21T05:36:04.461Z,7.97
2023-05-21T05:38:31.974Z,10.90
2023-05-21T05:40:58.866Z,8.37
2023-05-21T05:43:29.521Z,9.80
2023-05-21T05:45:58.313Z,10.67
2023-05-21T05:48:25.286Z,7.17
2023-05-21T05:50:57.418Z,8.53
2023-05-21T05:53:25.923Z,7.37
2023-05-21T05:55:53.222Z,7.87
2023-05-21T05:58:21.165Z,8.73
2023-05-21T06:00:57.552Z,7.07
2023-05-21T06:03:25.436Z,8.03
2023-05-21T06:05:53.391Z,7.80
2023-05-21T06:08:21.184Z,8.63
2023-05-21T06:10:47.831Z,7.40
2023-05-21T06:13:14.986Z,6.40
2023-05-21T06:15:45.160Z,6.77
2023-05-21T06:18:12.377Z,5.10
2023-05-21T06:20:39.122Z,4.97
2023-05-21T06:23:07.435Z,5.03
2023-05-21T06:25:34.285Z,4.60
2023-05-21T06:28:01.272Z,5.57
2023-05-21T06:30:30.202Z,4.33
2023-05-21T06:32:57.669Z,4.43
2023-05-21T06:35:25.438Z,3.77
2023-05-21T06:37:53.054Z,6.87
2023-05-21T06:40:20.832Z,4.87
2023-05-21T06:42:48.295Z,3.43
2023-05-21T06:45:36.610Z,5.33
2023-05-21T06:48:26.846Z,4.70
2023-05-21T06:50:55.486Z,3.60
2023-05-21T06:53:22.099Z,5.70
2023-05-21T06:55:49.241Z,4.23
2023-05-21T06:58:21.777Z,4.87
2023-05-21T07:00:49.031Z,5.10
2023-05-21T07:03:15.917Z,5.40
2023-05-21T07:05:47.159Z,3.83
2023-05-21T07:08:13.817Z,7.43
2023-05-21T07:10:40.861Z,3.70
2023-05-21T07:13:07.759Z,2.90
2023-05-21T07:15:34.824Z,3.60
2023-05-21T07:18:03.664Z,4.30
2023-05-21T07:20:31.042Z,3.47
2023-05-21T07:23:02.285Z,4.93
2023-05-21T07:25:28.954Z,4.00
2023-05-21T07:27:58.663Z,2.87
2023-05-21T07:30:27.259Z,2.80
2023-05-21T07:32:53.989Z,2.60
2023-05-21T07:35:20.991Z,4.17
2023-05-21T07:37:48.252Z,4.07
2023-05-21T07:40:15.314Z,3.30
2023-05-21T07:42:44.947Z,2.97
2023-05-21T07:45:13.024Z,6.40
2023-05-21T07:47:44.934Z,6.27
2023-05-21T07:50:12.238Z,6.27
2023-05-21T07:52:39.063Z,4.60
2023-05-21T07:55:11.174Z,3.77
2023-05-21T07:57:41.901Z,4.17
2023-05-21T08:00:15.578Z,5.60
2023-05-21T08:02:47.813Z,3.73
2023-05-21T08:05:16.763Z,5.43
2023-05-21T08:07:44.431Z,7.03
2023-05-21T08:10:11.464Z,3.87
2023-05-21T08:12:38.207Z,4.57
2023-05-21T08:15:06.984Z,3.17
2023-05-21T08:17:37.904Z,2.67
2023-05-21T08:20:05.042Z,3.47
2023-05-21T08:22:32.771Z,2.80
2023-05-21T08:25:01.015Z,4.03
2023-05-21T08:27:27.783Z,4.50
2023-05-21T08:29:54.643Z,5.43
2023-05-21T08:32:21.860Z,3.93
2023-05-21T08:34:49.410Z,5.77
2023-05-21T08:37:45.550Z,3.30
2023-05-21T08:40:41.656Z,3.10
2023-05-21T08:43:13.961Z,4.83
2023-05-21T08:45:48.766Z,5.10
2023-05-21T08:48:17.049Z,4.07
2023-05-21T08:50:44.188Z,2.80
2023-05-21T08:53:27.387Z,3.40
2023-05-21T08:55:57.745Z,3.77
2023-05-21T08:58:34.842Z,2.40
2023-05-21T09:01:01.633Z,2.73
2023-05-21T09:03:29.766Z,4.90
2023-05-21T09:05:56.900Z,4.67
2023-05-21T09:08:27.496Z,3.93
2023-05-21T09:11:05.064Z,3.00
2023-05-21T09:13:39.130Z,3.07
2023-05-21T09:16:13.341Z,3.13
2023-05-21T09:18:39.948Z,5.53
2023-05-21T09:21:26.553Z,3.33
2023-05-21T09:24:00.114Z,2.93
2023-05-21T09:26:27.084Z,3.30
2023-05-21T09:29:01.323Z,3.83
2023-05-21T09:31:28.135Z,3.63
2023-05-21T09:33:57.708Z,2.30
2023-05-21T09:36:30.070Z,3.77
2023-05-21T09:38:58.719Z,3.80
2023-05-21T09:41:33.657Z,2.70
2023-05-21T09:44:01.357Z,3.90
2023-05-21T09:46:28.764Z,4.03
2023-05-21T09:49:01.389Z,2.53
2023-05-21T09:51:29.248Z,5.03
2023-05-21T09:54:00.912Z,3.13
2023-05-21T09:56:32.368Z,2.80
2023-05-21T09:59:04.542Z,6.00
2023-05-21T10:01:31.841Z,3.70
2023-05-21T10:03:59.034Z,4.73
2023-05-21T10:06:32.367Z,9.90
2023-05-21T10:09:08.695Z,4.73
2023-05-21T10:11:35.417Z,3.53
2023-05-21T10:14:05.020Z,4.73
2023-05-21T10:16:36.023Z,3.40
2023-05-21T10:19:03.033Z,4.47
2023-05-21T10:21:29.879Z,3.90
2023-05-21T10:23:58.455Z,4.57
2023-05-21T10:26:25.168Z,7.70
2023-05-21T10:28:52.279Z,4.63
2023-05-21T10:31:18.946Z,3.27
2023-05-21T10:33:45.601Z,3.80
2023-05-21T10:36:12.237Z,4.00
2023-05-21T10:38:39.766Z,4.70
2023-05-21T10:41:07.041Z,4.30
2023-05-21T10:43:50.861Z,3.37
2023-05-21T10:46:17.747Z,4.93
2023-05-21T10:48:47.670Z,3.77
2023-05-21T10:51:14.864Z,3.47
2023-05-21T10:53:48.480Z,3.67
2023-05-21T10:56:35.284Z,4.00
2023-05-21T10:59:10.758Z,3.53
2023-05-21T11:01:37.973Z,4.27
2023-05-21T11:04:06.169Z,4.67
2023-05-21T11:06:32.969Z,5.23
2023-05-21T11:09:17.884Z,6.37
2023-05-21T11:11:46.265Z,4.90
2023-05-21T11:14:28.701Z,4.83
2023-05-21T11:16:55.604Z,2.47
2023-05-21T11:19:22.386Z,5.30
2023-05-21T11:21:53.465Z,3.10
2023-05-21T11:24:20.260Z,4.53
2023-05-21T11:26:55.461Z,3.70
2023-05-21T11:29:27.937Z,3.23
2023-05-21T11:32:02.934Z,2.50
2023-05-21T11:34:40.432Z,3.70
2023-05-21T11:37:16.762Z,3.57
2023-05-21T11:39:43.959Z,4.53
2023-05-21T11:42:10.807Z,4.03
2023-05-21T11:44:43.979Z,5.17
2023-05-21T11:47:11.392Z,3.47
2023-05-21T11:49:38.091Z,3.63
2023-05-21T11:52:09.865Z,2.97
2023-05-21T11:54:44.029Z,3.90
2023-05-21T11:57:10.896Z,3.37
2023-05-21T11:59:37.581Z,3.33
2023-05-21T12:02:04.961Z,2.70
2023-05-21T12:04:38.137Z,2.77
2023-05-21T12:07:08.214Z,2.30
2023-05-21T12:09:44.076Z,6.00
2023-05-21T12:12:11.405Z,5.00
2023-05-21T12:14:38.096Z,2.23
2023-05-21T12:17:05.074Z,3.83
2023-05-21T12:19:34.964Z,3.97
2023-05-21T12:22:05.751Z,4.10
2023-05-21T12:24:32.529Z,3.80
2023-05-21T12:27:02.545Z,2.70
2023-05-21T12:29:30.469Z,4.03
2023-05-21T12:32:03.092Z,3.07
2023-05-21T12:34:50.123Z,5.00
2023-05-21T12:37:17.650Z,5.00
2023-05-21T12:39:44.603Z,3.73
2023-05-21T12:42:12.294Z,2.17
2023-05-21T12:44:39.513Z,2.33
2023-05-21T12:47:06.232Z,2.37
2023-05-21T12:49:47.374Z,1.77
2023-05-21T12:52:15.188Z,4.30
2023-05-21T12:54:43.386Z,4.07
2023-05-21T12:57:15.080Z,5.03
2023-05-21T12:59:57.437Z,2.70
2023-05-21T13:02:26.805Z,3.80
2023-05-21T13:04:56.594Z,1.60
2023-05-21T13:07:23.598Z,3.87
2023-05-21T13:09:55.773Z,3.07
2023-05-21T13:12:23.193Z,4.53
2023-05-21T13:14:56.396Z,3.50
2023-05-21T13:17:23.865Z,2.83
2023-05-21T13:20:09.435Z,2.80
2023-05-21T13:22:39.020Z,2.00
2023-05-21T13:25:06.215Z,3.27
2023-05-21T13:27:35.890Z,3.80
2023-05-21T13:30:02.460Z,1.97
2023-05-21T13:32:29.228Z,3.60
2023-05-21T13:34:56.017Z,1.77
2023-05-21T13:37:23.873Z,2.63
2023-05-21T13:39:50.661Z,2.00
2023-05-21T13:42:17.432Z,4.30
2023-05-21T13:44:43.972Z,1.83
2023-05-21T13:47:12.056Z,4.53
2023-05-21T13:49:39.959Z,3.73
2023-05-21T13:52:07.471Z,2.40
2023-05-21T13:54:34.237Z,2.13
2023-05-21T13:57:01.712Z,2.97
2023-05-21T13:59:28.952Z,2.73
2023-05-21T14:01:58.224Z,3.47
2023-05-21T14:04:25.022Z,2.67
2023-05-21T14:06:52.500Z,4.03
2023-05-21T14:09:19.223Z,2.87
2023-05-21T14:11:47.299Z,2.40
2023-05-21T14:14:18.946Z,2.57
2023-05-21T14:16:50.724Z,3.23
2023-05-21T14:19:18.677Z,2.13
2023-05-21T14:21:45.979Z,3.50
2023-05-21T14:24:15.533Z,3.33
2023-05-21T14:26:42.442Z,3.60
2023-05-21T14:29:10.155Z,2.73
2023-05-21T14:31:36.904Z,4.53
2023-05-21T14:34:03.744Z,2.80
2023-05-21T14:36:31.219Z,6.43
2023-05-21T14:38:58.161Z,2.70
2023-05-21T14:41:26.750Z,5.13
2023-05-21T14:43:53.690Z,4.30
2023-05-21T14:46:21.794Z,4.60
2023-05-21T14:48:48.525Z,2.33
2023-05-21T14:51:17.694Z,3.33
2023-05-21T14:53:45.229Z,3.97
2023-05-21T14:56:12.018Z,3.17
2023-05-21T14:58:39.329Z,3.23
2023-05-21T15:01:06.147Z,4.30
2023-05-21T15:03:33.826Z,3.57
2023-05-21T15:06:00.739Z,2.37
2023-05-21T15:08:27.905Z,4.70
2023-05-21T15:10:54.698Z,3.47
2023-05-21T15:13:21.648Z,5.20
2023-05-21T15:15:50.133Z,4.73
2023-05-21T15:18:19.517Z,2.37
2023-05-21T15:20:46.175Z,2.17
2023-05-21T15:23:17.460Z,3.37
2023-05-21T15:25:45.218Z,4.70
2023-05-21T15:28:17.253Z,2.03
2023-05-21T15:31:08.744Z,2.67
2023-05-21T15:33:35.828Z,2.73
2023-05-21T15:36:02.832Z,2.77
2023-05-21T15:38:30.960Z,2.03
2023-05-21T15:40:57.914Z,2.77
2023-05-21T15:43:24.544Z,2.97
2023-05-21T15:45:51.375Z,3.30
2023-05-21T15:48:22.711Z,2.73
2023-05-21T15:50:50.081Z,3.10
2023-05-21T15:53:16.870Z,4.87
2023-05-21T15:55:44.829Z,4.37
2023-05-21T15:58:11.594Z,3.87
2023-05-21T16:00:38.391Z,4.30
2023-05-21T16:03:06.555Z,3.03
2023-05-21T16:05:33.742Z,2.47
2023-05-21T16:08:00.706Z,3.43
2023-05-21T16:10:27.600Z,2.53
2023-05-21T16:12:54.368Z,3.87
2023-05-21T16:15:21.406Z,3.57
2023-05-21T16:17:48.908Z,3.87
2023-05-21T16:20:18.788Z,5.17
2023-05-21T16:22:45.468Z,2.33
2023-05-21T16:25:12.249Z,3.17
2023-05-21T16:27:38.990Z,3.57
2023-05-21T16:30:07.591Z,3.17
2023-05-21T16:32:34.281Z,3.30
2023-05-21T16:35:01.897Z,3.17
2023-05-21T16:37:28.674Z,4.43
2023-05-21T16:39:55.552Z,2.63
2023-05-21T16:42:22.200Z,4.70
2023-05-21T16:44:48.813Z,3.90
2023-05-21T16:47:18.142Z,3.20
2023-05-21T16:49:46.281Z,2.80
2023-05-21T16:52:13.011Z,3.20
2023-05-21T16:54:40.630Z,2.20
2023-05-21T16:57:07.398Z,4.80
2023-05-21T16:59:35.017Z,5.33
2023-05-21T17:02:02.158Z,3.70
2023-05-21T17:04:28.900Z,3.23
2023-05-21T17:06:55.587Z,5.80
2023-05-21T17:09:24.857Z,2.80
2023-05-21T17:11:51.714Z,3.33
2023-05-21T17:14:30.328Z,2.97
2023-05-21T17:17:04.824Z,3.93
2023-05-21T17:19:31.816Z,2.17
2023-05-21T17:22:00.046Z,2.70
2023-05-21T17:24:26.746Z,4.27
2023-05-21T17:26:53.713Z,3.43
2023-05-21T17:29:22.553Z,1.97
2023-05-21T17:31:49.473Z,4.87
2023-05-21T17:34:18.121Z,3.80
2023-05-21T17:36:44.944Z,2.93
2023-05-21T17:39:11.827Z,3.60
2023-05-21T17:41:38.747Z,3.73
2023-05-21T17:44:05.571Z,4.23
2023-05-21T17:46:32.531Z,3.80
2023-05-21T17:48:59.419Z,3.63
2023-05-21T17:51:26.035Z,2.80
2023-05-21T17:53:52.883Z,3.00
2023-05-21T17:56:19.619Z,4.43
2023-05-21T17:58:46.435Z,2.90
2023-05-21T18:01:13.280Z,5.73
2023-05-21T18:03:40.344Z,2.03
2023-05-21T18:06:09.407Z,2.80
2023-05-21T18:08:37.421Z,2.80
2023-05-21T18:11:04.603Z,4.70
2023-05-21T18:13:31.540Z,4.23
2023-05-21T18:15:58.538Z,2.23
2023-05-21T18:18:26.215Z,6.40
2023-05-21T18:20:53.080Z,3.30
2023-05-21T18:23:21.484Z,4.27
2023-05-21T18:25:48.228Z,3.07
2023-05-21T18:28:16.419Z,1.70
2023-05-21T18:30:44.388Z,2.43
2023-05-21T18:33:12.623Z,3.30
2023-05-21T18:35:39.458Z,2.87
2023-05-21T18:38:11.490Z,2.10
2023-05-21T18:40:39.265Z,2.47
2023-05-21T18:43:06.606Z,4.93
2023-05-21T18:45:35.431Z,4.33
2023-05-21T18:48:03.247Z,3.73
2023-05-21T18:50:31.878Z,3.67
2023-05-21T18:52:59.890Z,5.23
2023-05-21T18:55:27.492Z,5.20
2023-05-21T18:57:54.863Z,4.63
2023-05-21T19:00:21.760Z,5.67
2023-05-21T19:02:48.426Z,5.60
2023-05-21T19:05:15.300Z,3.97
2023-05-21T19:07:44.104Z,3.23
2023-05-21T19:10:11.296Z,4.40
2023-05-21T19:12:39.615Z,5.63
2023-05-21T19:15:06.981Z,8.80
2023-05-21T19:17:35.224Z,4.03
2023-05-21T19:20:05.120Z,3.70
2023-05-21T19:22:34.142Z,4.30
2023-05-21T19:25:01.884Z,3.93
2023-05-21T19:27:29.524Z,3.93
2023-05-21T19:29:56.802Z,4.10
2023-05-21T19:32:26.517Z,4.13
2023-05-21T19:34:53.813Z,2.23
2023-05-21T19:37:20.763Z,4.27
2023-05-21T19:39:50.196Z,2.93
2023-05-21T19:42:18.859Z,3.77
2023-05-21T19:44:46.895Z,2.60
2023-05-21T19:47:13.821Z,5.73
2023-05-21T19:49:40.747Z,3.87
2023-05-21T19:52:09.646Z,4.30
2023-05-21T19:54:36.453Z,4.63
2023-05-21T19:57:04.348Z,3.30
2023-05-21T19:59:31.232Z,4.77
2023-05-21T20:01:57.978Z,3.03
2023-05-21T20:04:24.955Z,5.43
2023-05-21T20:06:52.721Z,4.03
2023-05-21T20:09:19.403Z,3.57
2023-05-21T20:11:46.500Z,7.90
2023-05-21T20:14:14.528Z,4.20
2023-05-21T20:16:42.772Z,4.07
2023-05-21T20:19:11.218Z,3.37
2023-05-21T20:21:41.379Z,2.60
2023-05-21T20:24:08.721Z,4.63
2023-05-21T20:26:36.548Z,4.40
2023-05-21T20:29:03.472Z,2.30
2023-05-21T20:31:30.516Z,3.93
2023-05-21T20:33:57.266Z,5.03
2023-05-21T20:36:26.993Z,9.73
2023-05-21T20:38:54.235Z,3.77
2023-05-21T20:41:21.816Z,4.23
2023-05-21T20:43:50.411Z,3.33
2023-05-21T20:46:17.263Z,4.63
2023-05-21T20:48:44.313Z,4.17
2023-05-21T20:51:11.298Z,3.60
2023-05-21T20:53:39.536Z,3.20
2023-05-21T20:56:08.370Z,4.53
2023-05-21T20:58:37.468Z,2.87
2023-05-21T21:01:04.502Z,3.37
2023-05-21T21:03:34.505Z,5.00
2023-05-21T21:06:01.334Z,5.03
2023-05-21T21:08:28.198Z,3.53
2023-05-21T21:10:55.393Z,4.03
2023-05-21T21:13:31.708Z,3.70
2023-05-21T21:15:58.664Z,3.53
2023-05-21T21:18:25.386Z,4.33
2023-05-21T21:20:55.261Z,2.63
2023-05-21T21:23:23.612Z,4.57
2023-05-21T21:25:50.868Z,5.17
2023-05-21T21:28:17.828Z,2.53
2023-05-21T21:30:45.172Z,4.57
2023-05-21T21:33:14.458Z,4.03
2023-05-21T21:35:41.258Z,4.47
2023-05-21T21:38:08.972Z,3.30
2023-05-21T21:40:35.624Z,4.47
2023-05-21T21:43:02.252Z,4.07
2023-05-21T21:45:29.025Z,3.20
2023-05-21T21:47:55.985Z,3.30
2023-05-21T21:50:23.004Z,2.90
2023-05-21T21:52:49.988Z,2.43
2023-05-21T21:55:16.609Z,3.90
2023-05-21T21:57:44.562Z,3.87
2023-05-21T22:00:16.004Z,4.73
2023-05-21T22:02:43.462Z,2.37
2023-05-21T22:05:11.757Z,4.07
2023-05-21T22:07:39.033Z,1.93
2023-05-21T22:10:06.343Z,2.90
2023-05-21T22:12:34.232Z,3.27
2023-05-21T22:15:05.398Z,3.73
2023-05-21T22:17:32.963Z,2.67
2023-05-21T22:20:00.021Z,3.07
2023-05-21T22:22:26.760Z,2.40
2023-05-21T22:24:53.650Z,3.90
2023-05-21T22:27:20.592Z,5.30
2023-05-21T22:29:47.240Z,3.53
2023-05-21T22:32:13.824Z,3.90
2023-05-21T22:34:41.946Z,3.10
2023-05-21T22:37:08.667Z,4.60
2023-05-21T22:39:35.298Z,4.67
2023-05-21T22:42:01.964Z,2.43
2023-05-21T22:44:28.567Z,2.97
2023-05-21T22:46:56.611Z,3.47
2023-05-21T22:49:24.176Z,2.37
2023-05-21T22:51:52.670Z,4.37
2023-05-21T22:54:19.263Z,3.53
2023-05-21T22:56:46.849Z,9.13
2023-05-21T22:59:13.464Z,7.07
2023-05-21T23:01:40.111Z,7.93
2023-05-21T23:04:07.506Z,6.83
2023-05-21T23:06:34.892Z,9.63
2023-05-21T23:09:01.463Z,9.87
2023-05-21T23:11:28.391Z,11.77
2023-05-21T23:13:55.001Z,11.30
2023-05-21T23:16:22.719Z,11.97
2023-05-21T23:18:51.185Z,8.00
2023-05-21T23:21:17.983Z,8.87
2023-05-21T23:23:44.596Z,9.07
2023-05-21T23:26:11.561Z,9.30
2023-05-21T23:28:38.879Z,7.30
2023-05-21T23:31:06.110Z,6.57
2023-05-21T23:33:32.708Z,7.23
2023-05-21T23:35:59.288Z,5.77
2023-05-21T23:38:26.191Z,4.90
2023-05-21T23:40:54.369Z,4.77
2023-05-21T23:43:20.939Z,4.37
2023-05-21T23:45:47.585Z,4.67
2023-05-21T23:48:14.188Z,4.23
2023-05-21T23:50:41.162Z,5.07
2023-05-21T23:53:07.980Z,4.53
2023-05-21T23:55:34.626Z,5.00
2023-05-21T23:58:01.431Z,5.13
